sensor_id;sensor_type;location;lat;lon;timestamp;P1;durP1;ratioP1;P2;durP2;ratioP2
17363;SDS011;8799;43.594;13.526;2023-04-01T00:00:21;5.87;;;2.50;;
17363;SDS011;8799;43.594;13.526;2023-04-01T00:02:50;6.63;;;2.73;;
17363;SDS011;8799;43.594;13.526;2023-04-01T00:05:18;4.53;;;2.23;;
17363;SDS011;8799;43.594;13.526;2023-04-01T00:07:46;6.13;;;2.63;;
17363;SDS011;8799;43.594;13.526;2023-04-01T00:10:14;6.70;;;2.33;;
17363;SDS011;8799;43.594;13.526;2023-04-01T00:12:43;4.47;;;2.50;;
17363;SDS011;8799;43.594;13.526;2023-04-01T00:15:11;10.07;;;2.40;;
17363;SDS011;8799;43.594;13.526;2023-04-01T00:17:40;4.23;;;2.40;;
17363;SDS011;8799;43.594;13.526;2023-04-01T00:20:07;5.93;;;2.40;;
17363;SDS011;8799;43.594;13.526;2023-04-01T00:22:36;5.33;;;2.50;;
17363;SDS011;8799;43.594;13.526;2023-04-01T00:25:04;4.77;;;2.63;;
17363;SDS011;8799;43.594;13.526;2023-04-01T00:27:33;4.63;;;2.20;;
17363;SDS011;8799;43.594;13.526;2023-04-01T00:30:02;8.60;;;2.77;;
17363;SDS011;8799;43.594;13.526;2023-04-01T00:34:59;5.43;;;2.80;;
17363;SDS011;8799;43.594;13.526;2023-04-01T00:37:27;4.77;;;2.13;;
17363;SDS011;8799;43.594;13.526;2023-04-01T00:39:56;3.73;;;2.13;;
17363;SDS011;8799;43.594;13.526;2023-04-01T00:42:24;7.10;;;2.37;;
17363;SDS011;8799;43.594;13.526;2023-04-01T00:44:53;2.73;;;2.33;;
17363;SDS011;8799;43.594;13.526;2023-04-01T00:47:23;5.77;;;2.40;;
17363;SDS011;8799;43.594;13.526;2023-04-01T00:49:53;5.80;;;2.50;;
17363;SDS011;8799;43.594;13.526;2023-04-01T00:52:22;5.67;;;2.30;;
17363;SDS011;8799;43.594;13.526;2023-04-01T00:54:53;5.50;;;2.87;;
17363;SDS011;8799;43.594;13.526;2023-04-01T00:57:27;10.27;;;2.97;;
17363;SDS011;8799;43.594;13.526;2023-04-01T00:59:59;7.97;;;2.33;;
17363;SDS011;8799;43.594;13.526;2023-04-01T01:02:28;6.00;;;2.50;;
17363;SDS011;8799;43.594;13.526;2023-04-01T01:04:56;4.20;;;2.07;;
17363;SDS011;8799;43.594;13.526;2023-04-01T01:07:26;5.40;;;2.23;;
17363;SDS011;8799;43.594;13.526;2023-04-01T01:10:00;5.50;;;2.63;;
17363;SDS011;8799;43.594;13.526;2023-04-01T01:12:34;3.97;;;2.27;;
17363;SDS011;8799;43.594;13.526;2023-04-01T01:15:09;5.47;;;2.17;;
17363;SDS011;8799;43.594;13.526;2023-04-01T01:17:56;6.87;;;2.20;;
17363;SDS011;8799;43.594;13.526;2023-04-01T01:20:36;6.23;;;2.40;;
17363;SDS011;8799;43.594;13.526;2023-04-01T01:26:25;6.37;;;2.30;;
17363;SDS011;8799;43.594;13.526;2023-04-01T01:29:05;2.83;;;1.90;;
17363;SDS011;8799;43.594;13.526;2023-04-01T01:31:43;4.63;;;1.83;;
17363;SDS011;8799;43.594;13.526;2023-04-01T01:34:18;2.77;;;1.70;;
17363;SDS011;8799;43.594;13.526;2023-04-01T01:36:58;2.37;;;1.70;;
17363;SDS011;8799;43.594;13.526;2023-04-01T01:39:35;7.40;;;1.93;;
17363;SDS011;8799;43.594;13.526;2023-04-01T01:42:05;2.43;;;1.67;;
17363;SDS011;8799;43.594;13.526;2023-04-01T01:44:36;4.63;;;2.00;;
17363;SDS011;8799;43.594;13.526;2023-04-01T01:47:05;7.40;;;1.80;;
17363;SDS011;8799;43.594;13.526;2023-04-01T01:49:33;4.43;;;1.90;;
17363;SDS011;8799;43.594;13.526;2023-04-01T01:52:04;10.77;;;1.87;;
17363;SDS011;8799;43.594;13.526;2023-04-01T01:54:32;4.43;;;1.70;;
17363;SDS011;8799;43.594;13.526;2023-04-01T01:57:01;2.37;;;1.80;;
17363;SDS011;8799;43.594;13.526;2023-04-01T01:59:32;4.07;;;1.73;;
17363;SDS011;8799;43.594;13.526;2023-04-01T02:02:02;2.63;;;1.60;;
17363;SDS011;8799;43.594;13.526;2023-04-01T02:04:33;2.57;;;1.70;;
17363;SDS011;8799;43.594;13.526;2023-04-01T02:07:02;2.60;;;1.70;;
17363;SDS011;8799;43.594;13.526;2023-04-01T02:09:34;3.60;;;1.60;;
17363;SDS011;8799;43.594;13.526;2023-04-01T02:12:03;3.47;;;1.60;;
17363;SDS011;8799;43.594;13.526;2023-04-01T02:14:35;2.83;;;1.40;;
17363;SDS011;8799;43.594;13.526;2023-04-01T02:17:07;2.50;;;1.53;;
17363;SDS011;8799;43.594;13.526;2023-04-01T02:19:38;5.03;;;1.77;;
17363;SDS011;8799;43.594;13.526;2023-04-01T02:22:10;2.50;;;1.37;;
17363;SDS011;8799;43.594;13.526;2023-04-01T02:24:41;1.83;;;1.27;;
17363;SDS011;8799;43.594;13.526;2023-04-01T02:27:10;2.23;;;1.57;;
17363;SDS011;8799;43.594;13.526;2023-04-01T02:29:39;2.00;;;1.60;;
17363;SDS011;8799;43.594;13.526;2023-04-01T02:32:07;6.93;;;1.50;;
17363;SDS011;8799;43.594;13.526;2023-04-01T02:34:36;1.87;;;1.43;;
17363;SDS011;8799;43.594;13.526;2023-04-01T02:37:04;3.07;;;1.43;;
17363;SDS011;8799;43.594;13.526;2023-04-01T02:39:35;3.63;;;1.33;;
17363;SDS011;8799;43.594;13.526;2023-04-01T02:42:03;2.83;;;1.40;;
17363;SDS011;8799;43.594;13.526;2023-04-01T02:44:31;1.30;;;1.20;;
17363;SDS011;8799;43.594;13.526;2023-04-01T02:46:59;2.53;;;1.40;;
17363;SDS011;8799;43.594;13.526;2023-04-01T02:49:27;6.53;;;1.37;;
17363;SDS011;8799;43.594;13.526;2023-04-01T02:51:55;2.73;;;1.50;;
17363;SDS011;8799;43.594;13.526;2023-04-01T02:54:23;4.20;;;1.43;;
17363;SDS011;8799;43.594;13.526;2023-04-01T02:56:53;2.63;;;1.60;;
17363;SDS011;8799;43.594;13.526;2023-04-01T02:59:21;2.73;;;1.47;;
17363;SDS011;8799;43.594;13.526;2023-04-01T03:01:49;2.67;;;1.23;;
17363;SDS011;8799;43.594;13.526;2023-04-01T03:04:17;11.43;;;1.30;;
17363;SDS011;8799;43.594;13.526;2023-04-01T03:06:44;3.93;;;1.50;;
17363;SDS011;8799;43.594;13.526;2023-04-01T03:09:13;3.20;;;1.63;;
17363;SDS011;8799;43.594;13.526;2023-04-01T03:11:41;3.00;;;1.30;;
17363;SDS011;8799;43.594;13.526;2023-04-01T03:14:10;2.40;;;1.53;;
17363;SDS011;8799;43.594;13.526;2023-04-01T03:16:38;2.40;;;1.40;;
17363;SDS011;8799;43.594;13.526;2023-04-01T03:19:06;2.37;;;1.67;;
17363;SDS011;8799;43.594;13.526;2023-04-01T03:21:35;3.20;;;1.37;;
17363;SDS011;8799;43.594;13.526;2023-04-01T03:24:03;2.23;;;1.67;;
17363;SDS011;8799;43.594;13.526;2023-04-01T03:26:33;1.47;;;1.37;;
17363;SDS011;8799;43.594;13.526;2023-04-01T03:29:00;2.80;;;1.47;;
17363;SDS011;8799;43.594;13.526;2023-04-01T03:31:29;2.07;;;1.47;;
17363;SDS011;8799;43.594;13.526;2023-04-01T03:33:58;3.80;;;1.80;;
17363;SDS011;8799;43.594;13.526;2023-04-01T03:36:25;6.73;;;1.93;;
17363;SDS011;8799;43.594;13.526;2023-04-01T03:38:53;4.57;;;1.33;;
17363;SDS011;8799;43.594;13.526;2023-04-01T03:41:21;5.00;;;1.93;;
17363;SDS011;8799;43.594;13.526;2023-04-01T03:43:49;3.73;;;1.53;;
17363;SDS011;8799;43.594;13.526;2023-04-01T03:46:18;3.93;;;1.70;;
17363;SDS011;8799;43.594;13.526;2023-04-01T03:48:47;3.10;;;1.70;;
17363;SDS011;8799;43.594;13.526;2023-04-01T03:51:16;3.67;;;1.60;;
17363;SDS011;8799;43.594;13.526;2023-04-01T03:53:44;4.07;;;1.53;;
17363;SDS011;8799;43.594;13.526;2023-04-01T03:56:12;2.77;;;1.70;;
17363;SDS011;8799;43.594;13.526;2023-04-01T03:58:40;2.83;;;1.70;;
17363;SDS011;8799;43.594;13.526;2023-04-01T04:01:14;1.90;;;1.30;;
17363;SDS011;8799;43.594;13.526;2023-04-01T04:03:44;2.60;;;1.47;;
17363;SDS011;8799;43.594;13.526;2023-04-01T04:06:13;4.77;;;2.17;;
17363;SDS011;8799;43.594;13.526;2023-04-01T04:08:41;3.70;;;1.80;;
17363;SDS011;8799;43.594;13.526;2023-04-01T04:11:09;3.77;;;1.63;;
17363;SDS011;8799;43.594;13.526;2023-04-01T04:13:37;2.13;;;1.57;;
17363;SDS011;8799;43.594;13.526;2023-04-01T04:16:05;2.63;;;1.70;;
17363;SDS011;8799;43.594;13.526;2023-04-01T04:18:34;4.63;;;1.87;;
17363;SDS011;8799;43.594;13.526;2023-04-01T04:21:03;2.07;;;1.57;;
17363;SDS011;8799;43.594;13.526;2023-04-01T04:23:33;5.60;;;1.70;;
17363;SDS011;8799;43.594;13.526;2023-04-01T04:26:04;6.97;;;1.70;;
17363;SDS011;8799;43.594;13.526;2023-04-01T04:28:34;5.43;;;1.83;;
17363;SDS011;8799;43.594;13.526;2023-04-01T04:31:02;4.63;;;1.60;;
17363;SDS011;8799;43.594;13.526;2023-04-01T04:33:31;5.40;;;1.80;;
17363;SDS011;8799;43.594;13.526;2023-04-01T04:35:59;2.80;;;1.43;;
17363;SDS011;8799;43.594;13.526;2023-04-01T04:38:27;2.77;;;1.77;;
17363;SDS011;8799;43.594;13.526;2023-04-01T04:40:57;3.27;;;1.67;;
17363;SDS011;8799;43.594;13.526;2023-04-01T04:43:25;2.67;;;1.57;;
17363;SDS011;8799;43.594;13.526;2023-04-01T04:45:53;8.83;;;1.87;;
17363;SDS011;8799;43.594;13.526;2023-04-01T04:48:21;5.00;;;1.50;;
17363;SDS011;8799;43.594;13.526;2023-04-01T04:50:49;2.30;;;1.67;;
17363;SDS011;8799;43.594;13.526;2023-04-01T04:53:18;2.50;;;1.43;;
17363;SDS011;8799;43.594;13.526;2023-04-01T04:55:47;4.60;;;1.90;;
17363;SDS011;8799;43.594;13.526;2023-04-01T04:58:17;7.37;;;1.77;;
17363;SDS011;8799;43.594;13.526;2023-04-01T05:00:45;4.63;;;2.17;;
17363;SDS011;8799;43.594;13.526;2023-04-01T05:03:13;4.30;;;1.73;;
17363;SDS011;8799;43.594;13.526;2023-04-01T05:05:47;4.23;;;1.73;;
17363;SDS011;8799;43.594;13.526;2023-04-01T05:08:16;3.33;;;1.60;;
17363;SDS011;8799;43.594;13.526;2023-04-01T05:10:44;5.37;;;2.00;;
17363;SDS011;8799;43.594;13.526;2023-04-01T05:13:12;4.17;;;1.70;;
17363;SDS011;8799;43.594;13.526;2023-04-01T05:15:41;4.50;;;2.13;;
17363;SDS011;8799;43.594;13.526;2023-04-01T05:18:09;2.47;;;1.70;;
17363;SDS011;8799;43.594;13.526;2023-04-01T05:20:37;3.17;;;1.70;;
17363;SDS011;8799;43.594;13.526;2023-04-01T05:23:05;4.13;;;1.90;;
17363;SDS011;8799;43.594;13.526;2023-04-01T05:25:33;2.97;;;1.80;;
17363;SDS011;8799;43.594;13.526;2023-04-01T05:28:01;3.23;;;1.80;;
17363;SDS011;8799;43.594;13.526;2023-04-01T05:30:29;3.67;;;1.80;;
17363;SDS011;8799;43.594;13.526;2023-04-01T05:32:59;3.83;;;1.93;;
17363;SDS011;8799;43.594;13.526;2023-04-01T05:35:26;5.23;;;2.00;;
17363;SDS011;8799;43.594;13.526;2023-04-01T05:37:55;4.57;;;1.90;;
17363;SDS011;8799;43.594;13.526;2023-04-01T05:40:23;6.53;;;2.07;;
17363;SDS011;8799;43.594;13.526;2023-04-01T05:42:52;2.53;;;1.50;;
17363;SDS011;8799;43.594;13.526;2023-04-01T05:45:20;3.03;;;1.87;;
17363;SDS011;8799;43.594;13.526;2023-04-01T05:47:47;4.40;;;2.00;;
17363;SDS011;8799;43.594;13.526;2023-04-01T05:50:16;6.03;;;2.07;;
17363;SDS011;8799;43.594;13.526;2023-04-01T05:52:44;4.37;;;1.93;;
17363;SDS011;8799;43.594;13.526;2023-04-01T05:55:12;7.30;;;2.23;;
17363;SDS011;8799;43.594;13.526;2023-04-01T05:57:40;4.57;;;2.20;;
17363;SDS011;8799;43.594;13.526;2023-04-01T06:00:09;6.37;;;2.00;;
17363;SDS011;8799;43.594;13.526;2023-04-01T06:02:38;7.80;;;1.80;;
17363;SDS011;8799;43.594;13.526;2023-04-01T06:05:22;6.07;;;2.07;;
17363;SDS011;8799;43.594;13.526;2023-04-01T06:07:51;4.30;;;1.83;;
17363;SDS011;8799;43.594;13.526;2023-04-01T06:10:28;3.47;;;2.00;;
17363;SDS011;8799;43.594;13.526;2023-04-01T06:13:04;10.43;;;2.77;;
17363;SDS011;8799;43.594;13.526;2023-04-01T06:15:39;3.43;;;1.80;;
17363;SDS011;8799;43.594;13.526;2023-04-01T06:24:37;7.30;;;2.10;;
17363;SDS011;8799;43.594;13.526;2023-04-01T06:27:21;5.27;;;2.13;;
17363;SDS011;8799;43.594;13.526;2023-04-01T06:30:00;3.83;;;1.80;;
17363;SDS011;8799;43.594;13.526;2023-04-01T06:32:47;4.73;;;2.37;;
17363;SDS011;8799;43.594;13.526;2023-04-01T06:35:35;7.77;;;2.13;;
17363;SDS011;8799;43.594;13.526;2023-04-01T06:38:19;7.67;;;2.23;;
17363;SDS011;8799;43.594;13.526;2023-04-01T06:44:21;9.53;;;2.83;;
17363;SDS011;8799;43.594;13.526;2023-04-01T06:46:57;10.93;;;2.83;;
17363;SDS011;8799;43.594;13.526;2023-04-01T06:49:32;12.93;;;3.10;;
17363;SDS011;8799;43.594;13.526;2023-04-01T06:52:10;9.33;;;2.47;;
17363;SDS011;8799;43.594;13.526;2023-04-01T06:54:48;10.37;;;2.80;;
17363;SDS011;8799;43.594;13.526;2023-04-01T06:57:20;7.70;;;2.70;;
17363;SDS011;8799;43.594;13.526;2023-04-01T06:59:54;8.63;;;2.77;;
17363;SDS011;8799;43.594;13.526;2023-04-01T07:02:25;8.50;;;2.43;;
17363;SDS011;8799;43.594;13.526;2023-04-01T07:04:59;13.23;;;2.23;;
17363;SDS011;8799;43.594;13.526;2023-04-01T07:07:30;13.47;;;2.70;;
17363;SDS011;8799;43.594;13.526;2023-04-01T07:10:05;11.93;;;2.83;;
17363;SDS011;8799;43.594;13.526;2023-04-01T07:12:40;20.50;;;3.27;;
17363;SDS011;8799;43.594;13.526;2023-04-01T07:15:13;10.60;;;2.63;;
17363;SDS011;8799;43.594;13.526;2023-04-01T07:17:46;17.77;;;3.20;;
17363;SDS011;8799;43.594;13.526;2023-04-01T07:20:20;12.33;;;2.60;;
17363;SDS011;8799;43.594;13.526;2023-04-01T07:22:54;8.30;;;2.47;;
17363;SDS011;8799;43.594;13.526;2023-04-01T07:25:27;13.70;;;3.13;;
17363;SDS011;8799;43.594;13.526;2023-04-01T07:28:00;10.90;;;2.73;;
17363;SDS011;8799;43.594;13.526;2023-04-01T07:30:32;6.67;;;2.40;;
17363;SDS011;8799;43.594;13.526;2023-04-01T07:33:07;10.63;;;2.40;;
17363;SDS011;8799;43.594;13.526;2023-04-01T07:35:43;7.13;;;2.60;;
17363;SDS011;8799;43.594;13.526;2023-04-01T07:38:19;11.03;;;2.53;;
17363;SDS011;8799;43.594;13.526;2023-04-01T07:40:58;7.97;;;2.37;;
17363;SDS011;8799;43.594;13.526;2023-04-01T07:43:42;8.00;;;2.60;;
17363;SDS011;8799;43.594;13.526;2023-04-01T07:46:22;9.27;;;2.30;;
17363;SDS011;8799;43.594;13.526;2023-04-01T07:49:00;18.50;;;2.70;;
17363;SDS011;8799;43.594;13.526;2023-04-01T07:51:34;6.57;;;2.43;;
17363;SDS011;8799;43.594;13.526;2023-04-01T07:54:10;6.60;;;2.80;;
17363;SDS011;8799;43.594;13.526;2023-04-01T07:56:48;17.50;;;3.43;;
17363;SDS011;8799;43.594;13.526;2023-04-01T07:59:20;6.47;;;2.13;;
17363;SDS011;8799;43.594;13.526;2023-04-01T08:01:56;10.67;;;2.90;;
17363;SDS011;8799;43.594;13.526;2023-04-01T08:04:46;6.83;;;2.50;;
17363;SDS011;8799;43.594;13.526;2023-04-01T08:07:22;8.93;;;3.33;;
17363;SDS011;8799;43.594;13.526;2023-04-01T08:09:54;6.70;;;2.50;;
17363;SDS011;8799;43.594;13.526;2023-04-01T08:12:31;6.67;;;2.70;;
17363;SDS011;8799;43.594;13.526;2023-04-01T08:15:11;8.30;;;2.40;;
17363;SDS011;8799;43.594;13.526;2023-04-01T08:17:52;7.53;;;2.23;;
17363;SDS011;8799;43.594;13.526;2023-04-01T08:20:28;8.60;;;2.97;;
17363;SDS011;8799;43.594;13.526;2023-04-01T08:23:03;7.53;;;2.50;;
17363;SDS011;8799;43.594;13.526;2023-04-01T08:25:39;8.30;;;2.73;;
17363;SDS011;8799;43.594;13.526;2023-04-01T08:28:16;5.83;;;2.10;;
17363;SDS011;8799;43.594;13.526;2023-04-01T08:30:48;8.37;;;2.47;;
17363;SDS011;8799;43.594;13.526;2023-04-01T08:33:21;7.63;;;2.27;;
17363;SDS011;8799;43.594;13.526;2023-04-01T08:35:52;5.57;;;2.00;;
17363;SDS011;8799;43.594;13.526;2023-04-01T08:38:23;5.93;;;2.27;;
17363;SDS011;8799;43.594;13.526;2023-04-01T08:41:01;6.03;;;2.30;;
17363;SDS011;8799;43.594;13.526;2023-04-01T08:46:58;4.53;;;2.00;;
17363;SDS011;8799;43.594;13.526;2023-04-01T08:49:55;8.20;;;2.40;;
17363;SDS011;8799;43.594;13.526;2023-04-01T08:52:48;7.57;;;2.70;;
17363;SDS011;8799;43.594;13.526;2023-04-01T08:55:27;7.83;;;2.37;;
17363;SDS011;8799;43.594;13.526;2023-04-01T08:58:11;4.97;;;2.17;;
17363;SDS011;8799;43.594;13.526;2023-04-01T09:00:56;5.17;;;2.30;;
17363;SDS011;8799;43.594;13.526;2023-04-01T09:03:50;10.73;;;2.57;;
17363;SDS011;8799;43.594;13.526;2023-04-01T09:06:40;3.73;;;1.93;;
17363;SDS011;8799;43.594;13.526;2023-04-01T09:09:34;5.80;;;2.40;;
17363;SDS011;8799;43.594;13.526;2023-04-01T09:12:33;4.47;;;2.07;;
17363;SDS011;8799;43.594;13.526;2023-04-01T09:15:16;4.50;;;1.90;;
17363;SDS011;8799;43.594;13.526;2023-04-01T09:21:11;6.33;;;2.23;;
17363;SDS011;8799;43.594;13.526;2023-04-01T09:24:00;9.67;;;2.10;;
17363;SDS011;8799;43.594;13.526;2023-04-01T09:26:57;5.43;;;2.13;;
17363;SDS011;8799;43.594;13.526;2023-04-01T09:29:37;9.50;;;2.40;;
17363;SDS011;8799;43.594;13.526;2023-04-01T09:32:20;7.23;;;2.20;;
17363;SDS011;8799;43.594;13.526;2023-04-01T09:35:17;4.63;;;2.13;;
17363;SDS011;8799;43.594;13.526;2023-04-01T09:37:54;6.33;;;2.00;;
17363;SDS011;8799;43.594;13.526;2023-04-01T09:40:37;6.77;;;2.37;;
17363;SDS011;8799;43.594;13.526;2023-04-01T09:43:26;11.10;;;2.23;;
17363;SDS011;8799;43.594;13.526;2023-04-01T09:46:14;7.97;;;2.37;;
17363;SDS011;8799;43.594;13.526;2023-04-01T09:52:01;7.00;;;2.17;;
17363;SDS011;8799;43.594;13.526;2023-04-01T09:54:45;6.20;;;2.10;;
17363;SDS011;8799;43.594;13.526;2023-04-01T09:57:28;5.37;;;2.40;;
17363;SDS011;8799;43.594;13.526;2023-04-01T10:03:40;5.30;;;2.20;;
17363;SDS011;8799;43.594;13.526;2023-04-01T10:12:55;4.03;;;2.20;;
17363;SDS011;8799;43.594;13.526;2023-04-01T10:21:51;2.73;;;1.70;;
17363;SDS011;8799;43.594;13.526;2023-04-01T10:24:50;5.97;;;1.90;;
17363;SDS011;8799;43.594;13.526;2023-04-01T10:36:57;4.13;;;1.80;;
17363;SDS011;8799;43.594;13.526;2023-04-01T10:39:33;3.33;;;1.90;;
17363;SDS011;8799;43.594;13.526;2023-04-01T10:48:43;5.33;;;2.13;;
17363;SDS011;8799;43.594;13.526;2023-04-01T10:54:45;5.90;;;1.90;;
17363;SDS011;8799;43.594;13.526;2023-04-01T10:57:31;6.27;;;1.87;;
17363;SDS011;8799;43.594;13.526;2023-04-01T11:10:04;6.20;;;2.20;;
17363;SDS011;8799;43.594;13.526;2023-04-01T11:16:31;3.97;;;2.03;;
17363;SDS011;8799;43.594;13.526;2023-04-01T11:19:40;2.77;;;1.50;;
17363;SDS011;8799;43.594;13.526;2023-04-01T11:22:36;7.47;;;2.33;;
17363;SDS011;8799;43.594;13.526;2023-04-01T11:25:24;4.40;;;1.73;;
17363;SDS011;8799;43.594;13.526;2023-04-01T11:31:17;5.37;;;1.77;;
17363;SDS011;8799;43.594;13.526;2023-04-01T11:34:16;5.07;;;2.33;;
17363;SDS011;8799;43.594;13.526;2023-04-01T11:37:01;6.00;;;2.07;;
17363;SDS011;8799;43.594;13.526;2023-04-01T11:39:42;6.20;;;2.10;;
17363;SDS011;8799;43.594;13.526;2023-04-01T11:42:19;4.07;;;1.90;;
17363;SDS011;8799;43.594;13.526;2023-04-01T11:44:56;3.87;;;1.60;;
17363;SDS011;8799;43.594;13.526;2023-04-01T11:47:47;6.20;;;1.93;;
17363;SDS011;8799;43.594;13.526;2023-04-01T11:50:24;9.07;;;2.63;;
17363;SDS011;8799;43.594;13.526;2023-04-01T11:56:00;3.63;;;2.00;;
17363;SDS011;8799;43.594;13.526;2023-04-01T11:58:52;4.33;;;1.60;;
17363;SDS011;8799;43.594;13.526;2023-04-01T12:01:44;3.17;;;1.57;;
17363;SDS011;8799;43.594;13.526;2023-04-01T12:07:21;6.57;;;1.70;;
17363;SDS011;8799;43.594;13.526;2023-04-01T12:10:02;4.37;;;1.90;;
17363;SDS011;8799;43.594;13.526;2023-04-01T12:12:46;3.10;;;1.73;;
17363;SDS011;8799;43.594;13.526;2023-04-01T12:15:23;4.33;;;2.10;;
17363;SDS011;8799;43.594;13.526;2023-04-01T12:18:02;4.30;;;2.37;;
17363;SDS011;8799;43.594;13.526;2023-04-01T12:20:43;3.77;;;1.90;;
17363;SDS011;8799;43.594;13.526;2023-04-01T12:26:19;4.37;;;1.53;;
17363;SDS011;8799;43.594;13.526;2023-04-01T12:29:03;3.13;;;1.70;;
17363;SDS011;8799;43.594;13.526;2023-04-01T12:31:42;4.23;;;1.70;;
17363;SDS011;8799;43.594;13.526;2023-04-01T12:34:32;4.80;;;1.90;;
17363;SDS011;8799;43.594;13.526;2023-04-01T12:37:33;3.27;;;1.70;;
17363;SDS011;8799;43.594;13.526;2023-04-01T12:40:16;3.70;;;1.70;;
17363;SDS011;8799;43.594;13.526;2023-04-01T12:45:51;4.53;;;2.00;;
17363;SDS011;8799;43.594;13.526;2023-04-01T12:48:31;3.50;;;1.80;;
17363;SDS011;8799;43.594;13.526;2023-04-01T12:51:25;4.43;;;2.10;;
17363;SDS011;8799;43.594;13.526;2023-04-01T12:54:12;3.17;;;1.90;;
17363;SDS011;8799;43.594;13.526;2023-04-01T12:56:59;7.17;;;2.20;;
17363;SDS011;8799;43.594;13.526;2023-04-01T12:59:42;5.50;;;2.50;;
17363;SDS011;8799;43.594;13.526;2023-04-01T13:02:26;5.50;;;2.10;;
17363;SDS011;8799;43.594;13.526;2023-04-01T13:05:11;3.97;;;2.10;;
17363;SDS011;8799;43.594;13.526;2023-04-01T13:07:52;3.40;;;1.90;;
17363;SDS011;8799;43.594;13.526;2023-04-01T13:10:37;5.37;;;2.27;;
17363;SDS011;8799;43.594;13.526;2023-04-01T13:13:21;3.57;;;1.60;;
17363;SDS011;8799;43.594;13.526;2023-04-01T13:16:01;4.57;;;2.07;;
17363;SDS011;8799;43.594;13.526;2023-04-01T13:18:39;3.90;;;1.67;;
17363;SDS011;8799;43.594;13.526;2023-04-01T13:21:21;2.50;;;1.63;;
17363;SDS011;8799;43.594;13.526;2023-04-01T13:24:00;3.63;;;2.00;;
17363;SDS011;8799;43.594;13.526;2023-04-01T13:26:34;3.80;;;1.90;;
17363;SDS011;8799;43.594;13.526;2023-04-01T13:29:09;3.37;;;1.77;;
17363;SDS011;8799;43.594;13.526;2023-04-01T13:31:53;3.27;;;1.97;;
17363;SDS011;8799;43.594;13.526;2023-04-01T13:34:38;3.37;;;1.67;;
17363;SDS011;8799;43.594;13.526;2023-04-01T13:37:21;2.87;;;1.70;;
17363;SDS011;8799;43.594;13.526;2023-04-01T13:39:57;4.80;;;2.00;;
17363;SDS011;8799;43.594;13.526;2023-04-01T13:42:42;4.83;;;1.90;;
17363;SDS011;8799;43.594;13.526;2023-04-01T13:45:17;4.70;;;1.67;;
17363;SDS011;8799;43.594;13.526;2023-04-01T13:47:57;4.17;;;1.90;;
17363;SDS011;8799;43.594;13.526;2023-04-01T13:50:57;4.90;;;1.70;;
17363;SDS011;8799;43.594;13.526;2023-04-01T13:53:43;3.13;;;1.70;;
17363;SDS011;8799;43.594;13.526;2023-04-01T13:56:24;6.93;;;2.10;;
17363;SDS011;8799;43.594;13.526;2023-04-01T13:59:11;6.33;;;2.17;;
17363;SDS011;8799;43.594;13.526;2023-04-01T14:01:57;5.27;;;2.37;;
17363;SDS011;8799;43.594;13.526;2023-04-01T14:07:34;5.80;;;2.20;;
17363;SDS011;8799;43.594;13.526;2023-04-01T14:10:15;5.13;;;2.30;;
17363;SDS011;8799;43.594;13.526;2023-04-01T14:12:50;4.63;;;2.70;;
17363;SDS011;8799;43.594;13.526;2023-04-01T14:15:38;5.53;;;2.00;;
17363;SDS011;8799;43.594;13.526;2023-04-01T14:18:22;3.30;;;1.67;;
17363;SDS011;8799;43.594;13.526;2023-04-01T14:21:04;5.17;;;2.10;;
17363;SDS011;8799;43.594;13.526;2023-04-01T14:23:53;3.40;;;1.70;;
17363;SDS011;8799;43.594;13.526;2023-04-01T14:30:02;4.73;;;2.20;;
17363;SDS011;8799;43.594;13.526;2023-04-01T14:33:12;4.57;;;1.80;;
17363;SDS011;8799;43.594;13.526;2023-04-01T14:35:55;3.60;;;1.80;;
17363;SDS011;8799;43.594;13.526;2023-04-01T14:38:35;4.33;;;1.60;;
17363;SDS011;8799;43.594;13.526;2023-04-01T14:41:20;2.00;;;1.30;;
17363;SDS011;8799;43.594;13.526;2023-04-01T14:44:03;4.17;;;1.53;;
17363;SDS011;8799;43.594;13.526;2023-04-01T14:46:52;5.47;;;1.60;;
17363;SDS011;8799;43.594;13.526;2023-04-01T14:49:40;2.73;;;1.60;;
17363;SDS011;8799;43.594;13.526;2023-04-01T14:52:10;3.20;;;1.60;;
17363;SDS011;8799;43.594;13.526;2023-04-01T14:54:42;3.83;;;1.40;;
17363;SDS011;8799;43.594;13.526;2023-04-01T14:57:15;5.67;;;1.80;;
17363;SDS011;8799;43.594;13.526;2023-04-01T14:59:51;5.23;;;1.63;;
17363;SDS011;8799;43.594;13.526;2023-04-01T15:02:27;8.70;;;1.50;;
17363;SDS011;8799;43.594;13.526;2023-04-01T15:05:12;2.40;;;1.40;;
17363;SDS011;8799;43.594;13.526;2023-04-01T15:13:55;2.40;;;1.50;;
17363;SDS011;8799;43.594;13.526;2023-04-01T15:16:35;2.63;;;1.40;;
17363;SDS011;8799;43.594;13.526;2023-04-01T15:19:15;2.97;;;1.50;;
17363;SDS011;8799;43.594;13.526;2023-04-01T15:21:55;3.43;;;1.30;;
17363;SDS011;8799;43.594;13.526;2023-04-01T15:24:38;4.47;;;1.27;;
17363;SDS011;8799;43.594;13.526;2023-04-01T15:27:19;6.87;;;1.43;;
17363;SDS011;8799;43.594;13.526;2023-04-01T15:30:11;4.43;;;1.27;;
17363;SDS011;8799;43.594;13.526;2023-04-01T15:33:06;2.93;;;1.27;;
17363;SDS011;8799;43.594;13.526;2023-04-01T15:35:45;4.70;;;1.57;;
17363;SDS011;8799;43.594;13.526;2023-04-01T15:38:19;2.90;;;1.30;;
17363;SDS011;8799;43.594;13.526;2023-04-01T15:40:56;4.10;;;1.33;;
17363;SDS011;8799;43.594;13.526;2023-04-01T15:43:31;4.20;;;1.40;;
17363;SDS011;8799;43.594;13.526;2023-04-01T15:46:14;1.37;;;1.10;;
17363;SDS011;8799;43.594;13.526;2023-04-01T15:49:00;3.20;;;1.80;;
17363;SDS011;8799;43.594;13.526;2023-04-01T15:51:41;2.60;;;1.43;;
17363;SDS011;8799;43.594;13.526;2023-04-01T15:54:26;1.33;;;1.07;;
17363;SDS011;8799;43.594;13.526;2023-04-01T15:57:12;2.37;;;1.50;;
17363;SDS011;8799;43.594;13.526;2023-04-01T16:02:48;5.43;;;1.17;;
17363;SDS011;8799;43.594;13.526;2023-04-01T16:05:25;2.17;;;1.30;;
17363;SDS011;8799;43.594;13.526;2023-04-01T16:11:14;2.73;;;1.20;;
17363;SDS011;8799;43.594;13.526;2023-04-01T16:13:52;3.57;;;1.10;;
17363;SDS011;8799;43.594;13.526;2023-04-01T16:16:29;2.63;;;1.20;;
17363;SDS011;8799;43.594;13.526;2023-04-01T16:19:16;1.67;;;1.10;;
17363;SDS011;8799;43.594;13.526;2023-04-01T16:21:56;2.63;;;1.10;;
17363;SDS011;8799;43.594;13.526;2023-04-01T16:24:31;4.00;;;1.37;;
17363;SDS011;8799;43.594;13.526;2023-04-01T16:27:03;1.90;;;0.83;;
17363;SDS011;8799;43.594;13.526;2023-04-01T16:29:37;1.57;;;1.10;;
17363;SDS011;8799;43.594;13.526;2023-04-01T16:32:15;2.30;;;1.20;;
17363;SDS011;8799;43.594;13.526;2023-04-01T16:34:56;3.13;;;1.60;;
17363;SDS011;8799;43.594;13.526;2023-04-01T16:37:33;9.37;;;1.90;;
17363;SDS011;8799;43.594;13.526;2023-04-01T16:40:10;5.70;;;1.80;;
17363;SDS011;8799;43.594;13.526;2023-04-01T16:42:46;3.40;;;1.80;;
17363;SDS011;8799;43.594;13.526;2023-04-01T16:45:19;5.70;;;1.80;;
17363;SDS011;8799;43.594;13.526;2023-04-01T16:47:59;5.93;;;2.13;;
17363;SDS011;8799;43.594;13.526;2023-04-01T16:50:41;3.50;;;1.60;;
17363;SDS011;8799;43.594;13.526;2023-04-01T16:53:21;2.83;;;1.73;;
17363;SDS011;8799;43.594;13.526;2023-04-01T16:56:02;2.73;;;2.03;;
17363;SDS011;8799;43.594;13.526;2023-04-01T16:58:36;7.93;;;2.30;;
17363;SDS011;8799;43.594;13.526;2023-04-01T17:01:09;4.10;;;2.07;;
17363;SDS011;8799;43.594;13.526;2023-04-01T17:03:40;6.23;;;1.90;;
17363;SDS011;8799;43.594;13.526;2023-04-01T17:06:25;7.30;;;2.10;;
17363;SDS011;8799;43.594;13.526;2023-04-01T17:09:12;4.00;;;1.90;;
17363;SDS011;8799;43.594;13.526;2023-04-01T17:11:53;4.93;;;2.30;;
17363;SDS011;8799;43.594;13.526;2023-04-01T17:14:30;6.53;;;2.53;;
17363;SDS011;8799;43.594;13.526;2023-04-01T17:17:11;4.70;;;2.37;;
17363;SDS011;8799;43.594;13.526;2023-04-01T17:19:56;4.97;;;2.00;;
17363;SDS011;8799;43.594;13.526;2023-04-01T17:22:39;6.00;;;2.50;;
17363;SDS011;8799;43.594;13.526;2023-04-01T17:25:19;7.57;;;2.33;;
17363;SDS011;8799;43.594;13.526;2023-04-01T17:27:57;4.67;;;2.33;;
17363;SDS011;8799;43.594;13.526;2023-04-01T17:30:33;3.97;;;2.10;;